sensor_id;sensor_type;location;lat;lon;timestamp;P1;durP1;ratioP1;P2;durP2;ratioP2
75691;SDS011;64307;52.508;6.090;2022-12-18T00:01:23;58.42;;;17.17;;
75691;SDS011;64307;52.508;6.090;2022-12-18T00:03:51;67.10;;;24.00;;
75691;SDS011;64307;52.508;6.090;2022-12-18T00:06:17;41.70;;;13.40;;
75691;SDS011;64307;52.508;6.090;2022-12-18T00:08:44;32.45;;;11.20;;
75691;SDS011;64307;52.508;6.090;2022-12-18T00:11:13;66.82;;;24.40;;
75691;SDS011;64307;52.508;6.090;2022-12-18T00:13:40;44.92;;;13.82;;
75691;SDS011;64307;52.508;6.090;2022-12-18T00:16:07;55.05;;;18.95;;
75691;SDS011;64307;52.508;6.090;2022-12-18T00:18:33;67.30;;;19.80;;
75691;SDS011;64307;52.508;6.090;2022-12-18T00:21:00;47.63;;;15.48;;
75691;SDS011;64307;52.508;6.090;2022-12-18T00:23:26;42.78;;;14.75;;
75691;SDS011;64307;52.508;6.090;2022-12-18T00:25:52;65.97;;;19.80;;
75691;SDS011;64307;52.508;6.090;2022-12-18T00:28:17;63.07;;;18.27;;
75691;SDS011;64307;52.508;6.090;2022-12-18T00:30:43;53.60;;;17.80;;
75691;SDS011;64307;52.508;6.090;2022-12-18T00:33:08;55.90;;;17.13;;
75691;SDS011;64307;52.508;6.090;2022-12-18T00:35:33;54.25;;;17.48;;
75691;SDS011;64307;52.508;6.090;2022-12-18T00:37:59;60.53;;;20.08;;
75691;SDS011;64307;52.508;6.090;2022-12-18T00:40:24;60.93;;;21.57;;
75691;SDS011;64307;52.508;6.090;2022-12-18T00:42:49;52.87;;;17.20;;
75691;SDS011;64307;52.508;6.090;2022-12-18T00:45:21;63.05;;;19.75;;
75691;SDS011;64307;52.508;6.090;2022-12-18T00:47:51;51.08;;;17.85;;
75691;SDS011;64307;52.508;6.090;2022-12-18T00:50:16;33.35;;;12.38;;
75691;SDS011;64307;52.508;6.090;2022-12-18T00:52:42;41.55;;;12.85;;
75691;SDS011;64307;52.508;6.090;2022-12-18T00:55:07;51.42;;;16.85;;
75691;SDS011;64307;52.508;6.090;2022-12-18T00:57:33;46.88;;;16.55;;
75691;SDS011;64307;52.508;6.090;2022-12-18T00:59:58;30.92;;;10.82;;
75691;SDS011;64307;52.508;6.090;2022-12-18T01:02:23;42.80;;;14.10;;
75691;SDS011;64307;52.508;6.090;2022-12-18T01:04:48;65.53;;;20.33;;
75691;SDS011;64307;52.508;6.090;2022-12-18T01:07:14;57.37;;;19.97;;
75691;SDS011;64307;52.508;6.090;2022-12-18T01:09:39;61.23;;;19.70;;
75691;SDS011;64307;52.508;6.090;2022-12-18T01:12:04;55.65;;;17.63;;
75691;SDS011;64307;52.508;6.090;2022-12-18T01:14:30;62.58;;;20.65;;
75691;SDS011;64307;52.508;6.090;2022-12-18T01:16:55;64.05;;;21.08;;
75691;SDS011;64307;52.508;6.090;2022-12-18T01:19:21;49.38;;;15.98;;
75691;SDS011;64307;52.508;6.090;2022-12-18T01:21:48;62.22;;;16.92;;
75691;SDS011;64307;52.508;6.090;2022-12-18T01:24:14;59.38;;;15.80;;
75691;SDS011;64307;52.508;6.090;2022-12-18T01:26:39;44.13;;;14.23;;
75691;SDS011;64307;52.508;6.090;2022-12-18T01:29:05;70.68;;;19.80;;
75691;SDS011;64307;52.508;6.090;2022-12-18T01:31:31;55.25;;;16.80;;
75691;SDS011;64307;52.508;6.090;2022-12-18T01:34:00;55.47;;;15.68;;
75691;SDS011;64307;52.508;6.090;2022-12-18T01:36:27;63.88;;;19.58;;
75691;SDS011;64307;52.508;6.090;2022-12-18T01:38:54;56.90;;;17.58;;
75691;SDS011;64307;52.508;6.090;2022-12-18T01:41:25;54.75;;;16.67;;
75691;SDS011;64307;52.508;6.090;2022-12-18T01:47:15;23.48;;;10.05;;
75691;SDS011;64307;52.508;6.090;2022-12-18T01:49:46;37.72;;;12.25;;
75691;SDS011;64307;52.508;6.090;2022-12-18T01:52:11;49.35;;;16.80;;
75691;SDS011;64307;52.508;6.090;2022-12-18T01:54:37;56.88;;;17.90;;
75691;SDS011;64307;52.508;6.090;2022-12-18T01:57:02;47.85;;;15.90;;
75691;SDS011;64307;52.508;6.090;2022-12-18T01:59:28;50.67;;;17.42;;
75691;SDS011;64307;52.508;6.090;2022-12-18T02:01:57;49.67;;;18.10;;
75691;SDS011;64307;52.508;6.090;2022-12-18T02:04:25;51.22;;;15.57;;
75691;SDS011;64307;52.508;6.090;2022-12-18T02:06:58;43.78;;;16.70;;
75691;SDS011;64307;52.508;6.090;2022-12-18T02:09:41;49.28;;;15.68;;
75691;SDS011;64307;52.508;6.090;2022-12-18T02:12:13;42.80;;;13.27;;
75691;SDS011;64307;52.508;6.090;2022-12-18T02:14:46;39.40;;;15.18;;
75691;SDS011;64307;52.508;6.090;2022-12-18T02:17:27;41.03;;;16.50;;
75691;SDS011;64307;52.508;6.090;2022-12-18T02:25:21;41.58;;;15.70;;
75691;SDS011;64307;52.508;6.090;2022-12-18T02:27:53;41.63;;;14.45;;
75691;SDS011;64307;52.508;6.090;2022-12-18T02:30:21;40.20;;;15.15;;
75691;SDS011;64307;52.508;6.090;2022-12-18T02:32:49;41.83;;;14.50;;
75691;SDS011;64307;52.508;6.090;2022-12-18T02:35:20;44.65;;;13.10;;
75691;SDS011;64307;52.508;6.090;2022-12-18T02:37:48;41.45;;;14.35;;
75691;SDS011;64307;52.508;6.090;2022-12-18T02:40:15;40.13;;;14.98;;
75691;SDS011;64307;52.508;6.090;2022-12-18T02:42:42;40.85;;;14.68;;
75691;SDS011;64307;52.508;6.090;2022-12-18T02:45:07;43.05;;;16.33;;
75691;SDS011;64307;52.508;6.090;2022-12-18T02:47:34;47.17;;;15.95;;
75691;SDS011;64307;52.508;6.090;2022-12-18T02:51:03;41.92;;;15.07;;
75691;SDS011;64307;52.508;6.090;2022-12-18T03:01:28;51.03;;;16.23;;
75691;SDS011;64307;52.508;6.090;2022-12-18T03:04:14;43.65;;;13.60;;
75691;SDS011;64307;52.508;6.090;2022-12-18T03:06:47;48.38;;;16.70;;
75691;SDS011;64307;52.508;6.090;2022-12-18T03:09:28;45.53;;;15.70;;
75691;SDS011;64307;52.508;6.090;2022-12-18T03:12:06;45.45;;;15.60;;
75691;SDS011;64307;52.508;6.090;2022-12-18T03:14:50;38.25;;;15.13;;
75691;SDS011;64307;52.508;6.090;2022-12-18T03:17:28;48.40;;;16.98;;
75691;SDS011;64307;52.508;6.090;2022-12-18T03:19:58;43.55;;;15.73;;
75691;SDS011;64307;52.508;6.090;2022-12-18T03:22:28;44.53;;;14.27;;
75691;SDS011;64307;52.508;6.090;2022-12-18T03:25:00;33.13;;;12.65;;
75691;SDS011;64307;52.508;6.090;2022-12-18T03:27:30;44.28;;;16.70;;
75691;SDS011;64307;52.508;6.090;2022-12-18T03:30:06;39.35;;;14.95;;
75691;SDS011;64307;52.508;6.090;2022-12-18T03:32:42;37.80;;;13.82;;
75691;SDS011;64307;52.508;6.090;2022-12-18T03:35:13;39.25;;;13.93;;
75691;SDS011;64307;52.508;6.090;2022-12-18T03:37:44;28.73;;;12.25;;
75691;SDS011;64307;52.508;6.090;2022-12-18T03:40:10;39.50;;;14.73;;
75691;SDS011;64307;52.508;6.090;2022-12-18T03:43:10;24.30;;;9.82;;
75691;SDS011;64307;52.508;6.090;2022-12-18T03:45:34;33.10;;;11.82;;
75691;SDS011;64307;52.508;6.090;2022-12-18T03:50:59;34.20;;;12.13;;
75691;SDS011;64307;52.508;6.090;2022-12-18T03:56:39;41.40;;;14.07;;
75691;SDS011;64307;52.508;6.090;2022-12-18T03:59:07;41.47;;;14.15;;
75691;SDS011;64307;52.508;6.090;2022-12-18T04:01:36;35.97;;;12.70;;
75691;SDS011;64307;52.508;6.090;2022-12-18T04:04:05;35.05;;;17.15;;
75691;SDS011;64307;52.508;6.090;2022-12-18T04:06:33;36.60;;;14.10;;
75691;SDS011;64307;52.508;6.090;2022-12-18T04:08:59;41.63;;;17.90;;
75691;SDS011;64307;52.508;6.090;2022-12-18T04:11:25;41.65;;;14.32;;
75691;SDS011;64307;52.508;6.090;2022-12-18T04:13:52;26.33;;;9.98;;
75691;SDS011;64307;52.508;6.090;2022-12-18T04:16:21;46.55;;;16.48;;
75691;SDS011;64307;52.508;6.090;2022-12-18T04:18:46;45.47;;;15.38;;
75691;SDS011;64307;52.508;6.090;2022-12-18T04:21:11;38.08;;;13.38;;
75691;SDS011;64307;52.508;6.090;2022-12-18T04:23:37;29.10;;;11.80;;
75691;SDS011;64307;52.508;6.090;2022-12-18T04:26:02;34.83;;;11.93;;
75691;SDS011;64307;52.508;6.090;2022-12-18T04:28:27;31.90;;;11.20;;
75691;SDS011;64307;52.508;6.090;2022-12-18T04:30:53;32.50;;;13.07;;
75691;SDS011;64307;52.508;6.090;2022-12-18T04:33:18;35.60;;;12.80;;
75691;SDS011;64307;52.508;6.090;2022-12-18T04:35:43;33.58;;;11.43;;
75691;SDS011;64307;52.508;6.090;2022-12-18T04:38:09;37.97;;;12.63;;
75691;SDS011;64307;52.508;6.090;2022-12-18T04:40:37;30.42;;;14.05;;
75691;SDS011;64307;52.508;6.090;2022-12-18T04:43:04;36.85;;;12.73;;
75691;SDS011;64307;52.508;6.090;2022-12-18T04:45:30;35.72;;;13.80;;
75691;SDS011;64307;52.508;6.090;2022-12-18T04:47:59;30.80;;;11.10;;
75691;SDS011;64307;52.508;6.090;2022-12-18T04:50:25;28.75;;;11.85;;
75691;SDS011;64307;52.508;6.090;2022-12-18T04:52:51;26.02;;;10.27;;
75691;SDS011;64307;52.508;6.090;2022-12-18T04:55:16;36.08;;;12.48;;
75691;SDS011;64307;52.508;6.090;2022-12-18T04:57:42;35.55;;;13.00;;
75691;SDS011;64307;52.508;6.090;2022-12-18T05:00:07;32.50;;;10.83;;
75691;SDS011;64307;52.508;6.090;2022-12-18T05:02:33;32.42;;;12.35;;
75691;SDS011;64307;52.508;6.090;2022-12-18T05:04:58;33.67;;;11.73;;
75691;SDS011;64307;52.508;6.090;2022-12-18T05:07:24;25.92;;;10.38;;
75691;SDS011;64307;52.508;6.090;2022-12-18T05:09:49;20.92;;;9.50;;
75691;SDS011;64307;52.508;6.090;2022-12-18T05:12:15;28.08;;;10.10;;
75691;SDS011;64307;52.508;6.090;2022-12-18T05:14:40;32.58;;;13.15;;
75691;SDS011;64307;52.508;6.090;2022-12-18T05:17:06;25.05;;;10.18;;
75691;SDS011;64307;52.508;6.090;2022-12-18T05:19:31;30.60;;;11.93;;
75691;SDS011;64307;52.508;6.090;2022-12-18T05:21:56;30.83;;;13.13;;
75691;SDS011;64307;52.508;6.090;2022-12-18T05:24:22;20.08;;;10.05;;
75691;SDS011;64307;52.508;6.090;2022-12-18T05:26:47;23.17;;;9.87;;
75691;SDS011;64307;52.508;6.090;2022-12-18T05:29:13;27.10;;;10.40;;
75691;SDS011;64307;52.508;6.090;2022-12-18T05:31:38;31.38;;;12.43;;
75691;SDS011;64307;52.508;6.090;2022-12-18T05:34:04;24.95;;;10.25;;
75691;SDS011;64307;52.508;6.090;2022-12-18T05:36:30;25.50;;;10.13;;
75691;SDS011;64307;52.508;6.090;2022-12-18T05:38:55;25.17;;;11.23;;
75691;SDS011;64307;52.508;6.090;2022-12-18T05:41:20;21.75;;;8.60;;
75691;SDS011;64307;52.508;6.090;2022-12-18T05:43:46;26.50;;;10.67;;
75691;SDS011;64307;52.508;6.090;2022-12-18T05:46:12;29.77;;;11.00;;
75691;SDS011;64307;52.508;6.090;2022-12-18T05:51:08;23.42;;;8.85;;
75691;SDS011;64307;52.508;6.090;2022-12-18T05:53:39;24.40;;;9.48;;
75691;SDS011;64307;52.508;6.090;2022-12-18T05:56:09;24.63;;;10.98;;
75691;SDS011;64307;52.508;6.090;2022-12-18T05:58:36;16.63;;;7.07;;
75691;SDS011;64307;52.508;6.090;2022-12-18T06:01:09;25.30;;;9.07;;
75691;SDS011;64307;52.508;6.090;2022-12-18T06:03:35;28.50;;;9.98;;
75691;SDS011;64307;52.508;6.090;2022-12-18T06:06:01;24.48;;;9.68;;
75691;SDS011;64307;52.508;6.090;2022-12-18T06:08:26;25.38;;;10.80;;
75691;SDS011;64307;52.508;6.090;2022-12-18T06:10:52;28.90;;;10.60;;
75691;SDS011;64307;52.508;6.090;2022-12-18T06:13:18;22.50;;;8.73;;
75691;SDS011;64307;52.508;6.090;2022-12-18T06:15:44;28.38;;;12.25;;
75691;SDS011;64307;52.508;6.090;2022-12-18T06:18:10;27.88;;;10.88;;
75691;SDS011;64307;52.508;6.090;2022-12-18T06:20:35;30.60;;;11.02;;
75691;SDS011;64307;52.508;6.090;2022-12-18T06:23:02;32.92;;;13.43;;
75691;SDS011;64307;52.508;6.090;2022-12-18T06:25:28;25.55;;;9.73;;
75691;SDS011;64307;52.508;6.090;2022-12-18T06:27:53;32.13;;;12.15;;
75691;SDS011;64307;52.508;6.090;2022-12-18T06:30:19;24.77;;;10.02;;
75691;SDS011;64307;52.508;6.090;2022-12-18T06:32:44;29.67;;;10.52;;
75691;SDS011;64307;52.508;6.090;2022-12-18T06:35:10;28.88;;;10.25;;
75691;SDS011;64307;52.508;6.090;2022-12-18T06:37:35;24.45;;;9.98;;
75691;SDS011;64307;52.508;6.090;2022-12-18T06:40:00;23.77;;;10.05;;
75691;SDS011;64307;52.508;6.090;2022-12-18T06:42:26;26.60;;;10.80;;
75691;SDS011;64307;52.508;6.090;2022-12-18T06:44:51;22.80;;;9.48;;
75691;SDS011;64307;52.508;6.090;2022-12-18T06:47:17;23.35;;;10.70;;
75691;SDS011;64307;52.508;6.090;2022-12-18T06:49:43;25.27;;;9.85;;
75691;SDS011;64307;52.508;6.090;2022-12-18T06:52:08;23.63;;;10.50;;
75691;SDS011;64307;52.508;6.090;2022-12-18T06:54:34;26.40;;;9.60;;
75691;SDS011;64307;52.508;6.090;2022-12-18T06:56:59;24.25;;;8.23;;
75691;SDS011;64307;52.508;6.090;2022-12-18T06:59:24;28.40;;;10.13;;
75691;SDS011;64307;52.508;6.090;2022-12-18T07:01:49;21.45;;;9.00;;
75691;SDS011;64307;52.508;6.090;2022-12-18T07:04:15;30.63;;;10.53;;
75691;SDS011;64307;52.508;6.090;2022-12-18T07:06:40;26.83;;;10.27;;
75691;SDS011;64307;52.508;6.090;2022-12-18T07:09:05;21.48;;;7.72;;
75691;SDS011;64307;52.508;6.090;2022-12-18T07:11:32;24.73;;;11.13;;
75691;SDS011;64307;52.508;6.090;2022-12-18T07:13:58;26.33;;;9.85;;
75691;SDS011;64307;52.508;6.090;2022-12-18T07:16:23;23.83;;;9.38;;
75691;SDS011;64307;52.508;6.090;2022-12-18T07:18:49;24.15;;;9.75;;
75691;SDS011;64307;52.508;6.090;2022-12-18T07:21:15;25.67;;;9.73;;
75691;SDS011;64307;52.508;6.090;2022-12-18T07:23:42;20.48;;;8.20;;
75691;SDS011;64307;52.508;6.090;2022-12-18T07:26:08;28.05;;;11.60;;
75691;SDS011;64307;52.508;6.090;2022-12-18T07:28:36;30.67;;;11.13;;
75691;SDS011;64307;52.508;6.090;2022-12-18T07:31:03;24.30;;;10.77;;
75691;SDS011;64307;52.508;6.090;2022-12-18T07:33:32;24.27;;;10.32;;
75691;SDS011;64307;52.508;6.090;2022-12-18T07:35:59;27.73;;;10.77;;
75691;SDS011;64307;52.508;6.090;2022-12-18T07:38:32;27.98;;;10.65;;
75691;SDS011;64307;52.508;6.090;2022-12-18T07:41:01;23.38;;;9.40;;
75691;SDS011;64307;52.508;6.090;2022-12-18T07:43:27;24.25;;;12.60;;
75691;SDS011;64307;52.508;6.090;2022-12-18T07:45:52;21.55;;;9.85;;
75691;SDS011;64307;52.508;6.090;2022-12-18T07:48:18;25.10;;;10.68;;
75691;SDS011;64307;52.508;6.090;2022-12-18T07:50:43;28.20;;;10.50;;
75691;SDS011;64307;52.508;6.090;2022-12-18T07:53:08;24.97;;;9.83;;
75691;SDS011;64307;52.508;6.090;2022-12-18T07:55:33;24.50;;;10.50;;
75691;SDS011;64307;52.508;6.090;2022-12-18T07:58:03;22.55;;;9.30;;
75691;SDS011;64307;52.508;6.090;2022-12-18T08:00:29;21.85;;;8.88;;
75691;SDS011;64307;52.508;6.090;2022-12-18T08:02:54;24.60;;;9.43;;
75691;SDS011;64307;52.508;6.090;2022-12-18T08:05:19;24.70;;;10.10;;
75691;SDS011;64307;52.508;6.090;2022-12-18T08:07:45;18.40;;;8.55;;
75691;SDS011;64307;52.508;6.090;2022-12-18T08:10:11;25.75;;;10.27;;
75691;SDS011;64307;52.508;6.090;2022-12-18T08:12:36;24.40;;;9.57;;
75691;SDS011;64307;52.508;6.090;2022-12-18T08:15:01;21.13;;;8.40;;
75691;SDS011;64307;52.508;6.090;2022-12-18T08:17:27;21.77;;;9.20;;
75691;SDS011;64307;52.508;6.090;2022-12-18T08:19:52;24.10;;;10.65;;
75691;SDS011;64307;52.508;6.090;2022-12-18T08:22:18;22.17;;;9.45;;
75691;SDS011;64307;52.508;6.090;2022-12-18T08:24:43;21.83;;;9.70;;
75691;SDS011;64307;52.508;6.090;2022-12-18T08:27:09;22.38;;;8.25;;
75691;SDS011;64307;52.508;6.090;2022-12-18T08:29:34;18.83;;;7.88;;
75691;SDS011;64307;52.508;6.090;2022-12-18T08:32:00;21.40;;;9.13;;
75691;SDS011;64307;52.508;6.090;2022-12-18T08:34:25;23.17;;;10.43;;
75691;SDS011;64307;52.508;6.090;2022-12-18T08:36:50;20.05;;;8.50;;
75691;SDS011;64307;52.508;6.090;2022-12-18T08:39:15;18.65;;;8.32;;
75691;SDS011;64307;52.508;6.090;2022-12-18T08:41:41;19.07;;;8.67;;
75691;SDS011;64307;52.508;6.090;2022-12-18T08:44:07;18.35;;;7.18;;
75691;SDS011;64307;52.508;6.090;2022-12-18T08:46:51;19.73;;;8.60;;
75691;SDS011;64307;52.508;6.090;2022-12-18T08:49:16;16.77;;;8.80;;
75691;SDS011;64307;52.508;6.090;2022-12-18T08:51:42;20.90;;;9.13;;
75691;SDS011;64307;52.508;6.090;2022-12-18T08:54:07;20.88;;;9.25;;
75691;SDS011;64307;52.508;6.090;2022-12-18T08:56:35;24.48;;;10.02;;
75691;SDS011;64307;52.508;6.090;2022-12-18T08:59:00;21.33;;;9.50;;
75691;SDS011;64307;52.508;6.090;2022-12-18T09:01:26;13.65;;;7.63;;
75691;SDS011;64307;52.508;6.090;2022-12-18T09:03:51;21.73;;;9.25;;
75691;SDS011;64307;52.508;6.090;2022-12-18T09:06:17;19.63;;;9.32;;
75691;SDS011;64307;52.508;6.090;2022-12-18T09:08:45;20.10;;;9.73;;
75691;SDS011;64307;52.508;6.090;2022-12-18T09:11:13;19.90;;;9.32;;
75691;SDS011;64307;52.508;6.090;2022-12-18T09:13:46;17.60;;;8.35;;
75691;SDS011;64307;52.508;6.090;2022-12-18T09:16:11;22.55;;;9.15;;
75691;SDS011;64307;52.508;6.090;2022-12-18T09:18:37;23.15;;;9.00;;
75691;SDS011;64307;52.508;6.090;2022-12-18T09:21:12;19.40;;;8.57;;
75691;SDS011;64307;52.508;6.090;2022-12-18T09:23:50;15.85;;;8.20;;
75691;SDS011;64307;52.508;6.090;2022-12-18T09:26:16;17.65;;;8.68;;
75691;SDS011;64307;52.508;6.090;2022-12-18T09:28:42;24.05;;;11.52;;
75691;SDS011;64307;52.508;6.090;2022-12-18T09:31:08;16.92;;;8.05;;
75691;SDS011;64307;52.508;6.090;2022-12-18T09:33:36;17.60;;;7.68;;
75691;SDS011;64307;52.508;6.090;2022-12-18T09:36:03;19.77;;;9.30;;
75691;SDS011;64307;52.508;6.090;2022-12-18T09:38:29;17.15;;;8.05;;
75691;SDS011;64307;52.508;6.090;2022-12-18T09:44:05;15.70;;;7.32;;
75691;SDS011;64307;52.508;6.090;2022-12-18T09:49:51;13.73;;;6.30;;
75691;SDS011;64307;52.508;6.090;2022-12-18T09:52:27;15.57;;;7.20;;
75691;SDS011;64307;52.508;6.090;2022-12-18T09:55:12;14.88;;;7.25;;
75691;SDS011;64307;52.508;6.090;2022-12-18T09:57:45;13.98;;;6.55;;
75691;SDS011;64307;52.508;6.090;2022-12-18T10:00:17;13.93;;;7.18;;
75691;SDS011;64307;52.508;6.090;2022-12-18T10:02:45;9.52;;;4.80;;
75691;SDS011;64307;52.508;6.090;2022-12-18T10:05:12;14.15;;;6.55;;
75691;SDS011;64307;52.508;6.090;2022-12-18T10:07:47;14.02;;;6.90;;
75691;SDS011;64307;52.508;6.090;2022-12-18T10:10:26;13.90;;;6.85;;
75691;SDS011;64307;52.508;6.090;2022-12-18T10:16:00;14.05;;;6.40;;
75691;SDS011;64307;52.508;6.090;2022-12-18T10:18:39;10.85;;;5.60;;
75691;SDS011;64307;52.508;6.090;2022-12-18T10:21:32;13.88;;;5.97;;
75691;SDS011;64307;52.508;6.090;2022-12-18T10:27:14;11.75;;;5.03;;
75691;SDS011;64307;52.508;6.090;2022-12-18T10:29:43;10.25;;;5.28;;
75691;SDS011;64307;52.508;6.090;2022-12-18T10:32:27;12.18;;;6.00;;
75691;SDS011;64307;52.508;6.090;2022-12-18T10:34:54;11.13;;;5.35;;
75691;SDS011;64307;52.508;6.090;2022-12-18T10:37:22;10.80;;;5.55;;
75691;SDS011;64307;52.508;6.090;2022-12-18T10:42:39;10.32;;;5.68;;
75691;SDS011;64307;52.508;6.090;2022-12-18T10:45:10;10.13;;;5.15;;
75691;SDS011;64307;52.508;6.090;2022-12-18T10:47:42;14.00;;;6.43;;
75691;SDS011;64307;52.508;6.090;2022-12-18T10:50:18;11.43;;;5.47;;
75691;SDS011;64307;52.508;6.090;2022-12-18T10:53:04;9.80;;;5.30;;
75691;SDS011;64307;52.508;6.090;2022-12-18T10:55:31;11.98;;;5.07;;
75691;SDS011;64307;52.508;6.090;2022-12-18T10:58:13;10.50;;;5.20;;
75691;SDS011;64307;52.508;6.090;2022-12-18T11:01:02;7.18;;;3.50;;
75691;SDS011;64307;52.508;6.090;2022-12-18T11:03:43;14.25;;;7.10;;
75691;SDS011;64307;52.508;6.090;2022-12-18T11:06:14;12.77;;;6.18;;
75691;SDS011;64307;52.508;6.090;2022-12-18T11:09:02;12.80;;;5.85;;
75691;SDS011;64307;52.508;6.090;2022-12-18T11:11:29;9.88;;;5.40;;
75691;SDS011;64307;52.508;6.090;2022-12-18T11:14:03;10.23;;;4.85;;
75691;SDS011;64307;52.508;6.090;2022-12-18T11:16:33;10.27;;;5.35;;
75691;SDS011;64307;52.508;6.090;2022-12-18T11:19:35;12.27;;;5.05;;
75691;SDS011;64307;52.508;6.090;2022-12-18T11:22:01;10.70;;;5.35;;
75691;SDS011;64307;52.508;6.090;2022-12-18T11:24:41;8.40;;;4.68;;
75691;SDS011;64307;52.508;6.090;2022-12-18T11:27:15;11.00;;;5.63;;
75691;SDS011;64307;52.508;6.090;2022-12-18T11:29:43;11.93;;;5.85;;
75691;SDS011;64307;52.508;6.090;2022-12-18T11:32:21;12.38;;;5.60;;
75691;SDS011;64307;52.508;6.090;2022-12-18T11:34:57;11.00;;;5.18;;
75691;SDS011;64307;52.508;6.090;2022-12-18T11:37:27;13.88;;;5.65;;
75691;SDS011;64307;52.508;6.090;2022-12-18T11:40:06;11.48;;;5.05;;
75691;SDS011;64307;52.508;6.090;2022-12-18T11:42:39;12.13;;;5.43;;
75691;SDS011;64307;52.508;6.090;2022-12-18T11:47:42;9.18;;;5.18;;
75691;SDS011;64307;52.508;6.090;2022-12-18T11:50:45;8.27;;;3.95;;
75691;SDS011;64307;52.508;6.090;2022-12-18T11:53:14;10.45;;;5.25;;
75691;SDS011;64307;52.508;6.090;2022-12-18T11:55:47;11.57;;;5.22;;
75691;SDS011;64307;52.508;6.090;2022-12-18T11:58:40;12.80;;;4.82;;
75691;SDS011;64307;52.508;6.090;2022-12-18T12:04:07;10.50;;;5.35;;
75691;SDS011;64307;52.508;6.090;2022-12-18T12:07:07;9.85;;;5.13;;
75691;SDS011;64307;52.508;6.090;2022-12-18T12:09:46;10.73;;;5.85;;
75691;SDS011;64307;52.508;6.090;2022-12-18T12:15:16;8.90;;;5.55;;
75691;SDS011;64307;52.508;6.090;2022-12-18T12:17:45;9.23;;;4.45;;
75691;SDS011;64307;52.508;6.090;2022-12-18T12:20:26;8.55;;;4.47;;
75691;SDS011;64307;52.508;6.090;2022-12-18T12:25:46;9.77;;;4.60;;
75691;SDS011;64307;52.508;6.090;2022-12-18T12:34:15;7.40;;;3.55;;
75691;SDS011;64307;52.508;6.090;2022-12-18T12:39:37;8.07;;;3.70;;
75691;SDS011;64307;52.508;6.090;2022-12-18T12:42:05;10.05;;;4.15;;
75691;SDS011;64307;52.508;6.090;2022-12-18T12:45:20;8.88;;;4.35;;
75691;SDS011;64307;52.508;6.090;2022-12-18T12:47:51;8.38;;;4.20;;
75691;SDS011;64307;52.508;6.090;2022-12-18T12:50:19;6.18;;;3.28;;
75691;SDS011;64307;52.508;6.090;2022-12-18T12:52:47;7.10;;;2.85;;
75691;SDS011;64307;52.508;6.090;2022-12-18T12:55:18;9.23;;;4.10;;
75691;SDS011;64307;52.508;6.090;2022-12-18T12:58:06;7.88;;;4.28;;
75691;SDS011;64307;52.508;6.090;2022-12-18T13:00:50;9.00;;;3.90;;
75691;SDS011;64307;52.508;6.090;2022-12-18T13:03:39;9.20;;;3.67;;
75691;SDS011;64307;52.508;6.090;2022-12-18T13:06:33;8.15;;;4.38;;
75691;SDS011;64307;52.508;6.090;2022-12-18T13:09:05;6.80;;;3.58;;
75691;SDS011;64307;52.508;6.090;2022-12-18T13:11:32;7.20;;;3.53;;
75691;SDS011;64307;52.508;6.090;2022-12-18T13:14:26;10.38;;;5.38;;
75691;SDS011;64307;52.508;6.090;2022-12-18T13:19:41;7.28;;;3.47;;
75691;SDS011;64307;52.508;6.090;2022-12-18T13:22:20;7.78;;;4.10;;
75691;SDS011;64307;52.508;6.090;2022-12-18T13:24:47;6.90;;;3.38;;
75691;SDS011;64307;52.508;6.090;2022-12-18T13:40:57;9.45;;;3.10;;
75691;SDS011;64307;52.508;6.090;2022-12-18T13:49:02;8.02;;;4.15;;
75691;SDS011;64307;52.508;6.090;2022-12-18T13:51:31;8.90;;;4.28;;
75691;SDS011;64307;52.508;6.090;2022-12-18T13:53:59;8.85;;;4.25;;
75691;SDS011;64307;52.508;6.090;2022-12-18T13:56:46;8.07;;;3.53;;
75691;SDS011;64307;52.508;6.090;2022-12-18T13:59:14;9.10;;;4.47;;
75691;SDS011;64307;52.508;6.090;2022-12-18T14:09:59;12.38;;;5.78;;
75691;SDS011;64307;52.508;6.090;2022-12-18T14:12:27;31.00;;;13.75;;
75691;SDS011;64307;52.508;6.090;2022-12-18T14:17:57;19.92;;;9.13;;
75691;SDS011;64307;52.508;6.090;2022-12-18T14:20:28;25.85;;;12.43;;
75691;SDS011;64307;52.508;6.090;2022-12-18T14:22:56;8.32;;;4.22;;
75691;SDS011;64307;52.508;6.090;2022-12-18T14:25:23;14.50;;;7.53;;
75691;SDS011;64307;52.508;6.090;2022-12-18T14:27:51;9.23;;;5.07;;
75691;SDS011;64307;52.508;6.090;2022-12-18T14:30:30;8.45;;;4.07;;
75691;SDS011;64307;52.508;6.090;2022-12-18T14:33:09;9.40;;;4.55;;
75691;SDS011;64307;52.508;6.090;2022-12-18T14:35:42;9.68;;;4.25;;
75691;SDS011;64307;52.508;6.090;2022-12-18T14:38:23;10.38;;;4.97;;
75691;SDS011;64307;52.508;6.090;2022-12-18T14:41:19;6.50;;;3.47;;
75691;SDS011;64307;52.508;6.090;2022-12-18T14:43:45;9.32;;;4.35;;
75691;SDS011;64307;52.508;6.090;2022-12-18T14:46:25;7.80;;;4.18;;
75691;SDS011;64307;52.508;6.090;2022-12-18T14:53:48;8.65;;;4.32;;
75691;SDS011;64307;52.508;6.090;2022-12-18T14:56:28;10.48;;;4.65;;
75691;SDS011;64307;52.508;6.090;2022-12-18T14:59:12;10.27;;;5.40;;
75691;SDS011;64307;52.508;6.090;2022-12-18T15:01:45;8.77;;;5.47;;
75691;SDS011;64307;52.508;6.090;2022-12-18T15:04:47;8.10;;;3.50;;
75691;SDS011;64307;52.508;6.090;2022-12-18T15:07:19;8.50;;;4.47;;
75691;SDS011;64307;52.508;6.090;2022-12-18T15:12:48;12.05;;;5.15;;
75691;SDS011;64307;52.508;6.090;2022-12-18T15:20:32;10.60;;;5.30;;
75691;SDS011;64307;52.508;6.090;2022-12-18T15:26:03;11.77;;;4.93;;
75691;SDS011;64307;52.508;6.090;2022-12-18T15:28:38;9.65;;;5.40;;
75691;SDS011;64307;52.508;6.090;2022-12-18T15:33:34;26.27;;;16.70;;
75691;SDS011;64307;52.508;6.090;2022-12-18T15:36:07;27.25;;;15.00;;
75691;SDS011;64307;52.508;6.090;2022-12-18T15:38:35;18.15;;;11.38;;
75691;SDS011;64307;52.508;6.090;2022-12-18T15:41:00;25.48;;;14.38;;
75691;SDS011;64307;52.508;6.090;2022-12-18T15:43:26;19.48;;;11.43;;
75691;SDS011;64307;52.508;6.090;2022-12-18T15:45:58;52.00;;;27.13;;
75691;SDS011;64307;52.508;6.090;2022-12-18T15:48:24;52.95;;;30.38;;
75691;SDS011;64307;52.508;6.090;2022-12-18T15:50:50;17.45;;;7.82;;
75691;SDS011;64307;52.508;6.090;2022-12-18T15:53:18;31.42;;;15.38;;
75691;SDS011;64307;52.508;6.090;2022-12-18T15:55:44;29.15;;;16.15;;
75691;SDS011;64307;52.508;6.090;2022-12-18T15:58:28;23.58;;;13.63;;
75691;SDS011;64307;52.508;6.090;2022-12-18T16:00:54;18.40;;;9.77;;
75691;SDS011;64307;52.508;6.090;2022-12-18T16:03:23;22.15;;;12.45;;
75691;SDS011;64307;52.508;6.090;2022-12-18T16:05:48;28.77;;;13.37;;
75691;SDS011;64307;52.508;6.090;2022-12-18T16:08:13;18.50;;;9.45;;
75691;SDS011;64307;52.508;6.090;2022-12-18T16:10:39;21.13;;;14.27;;
75691;SDS011;64307;52.508;6.090;2022-12-18T16:13:04;15.18;;;7.72;;
75691;SDS011;64307;52.508;6.090;2022-12-18T16:15:31;13.05;;;7.30;;
75691;SDS011;64307;52.508;6.090;2022-12-18T16:17:56;12.98;;;7.43;;
75691;SDS011;64307;52.508;6.090;2022-12-18T16:20:22;12.35;;;6.32;;
75691;SDS011;64307;52.508;6.090;2022-12-18T16:22:48;19.00;;;11.18;;
75691;SDS011;64307;52.508;6.090;2022-12-18T16:25:24;37.03;;;19.25;;
75691;SDS011;64307;52.508;6.090;2022-12-18T16:27:52;31.83;;;16.75;;
75691;SDS011;64307;52.508;6.090;2022-12-18T16:30:20;20.13;;;7.57;;
75691;SDS011;64307;52.508;6.090;2022-12-18T16:32:47;10.35;;;4.78;;
75691;SDS011;64307;52.508;6.090;2022-12-18T16:35:13;15.52;;;6.03;;
75691;SDS011;64307;52.508;6.090;2022-12-18T16:37:40;20.67;;;10.77;;